This is the latest recevied weather packets stored in our database for station/object W4MLN-1. If no packets are shown the sender has not sent any weather packets the latest 10 day(s).
| Time | Temp. | Humidity | Pressure | Rain* | Wind** | Luminosity | Snow |
|---|---|---|---|---|---|---|---|
| 1777498358 | 20.56° C | 69% | 1010.1 hPa | 0 mm | - | 88 W/m² | - |
| 1777498058 | 20.56° C | 69% | 1010.1 hPa | 0 mm | - | 115 W/m² | - |
| 1777497758 | 20.56° C | 69% | 1010 hPa | 0 mm | - | 534 W/m² | - |
| 1777497459 | 20.56° C | 69% | 1010.2 hPa | 0 mm | - | 219 W/m² | - |
| 1777497158 | 20.56° C | 68% | 1010.1 hPa | 0 mm | - | 187 W/m² | - |
| 1777496859 | 21.11° C | 68% | 1010 hPa | 0 mm | - | 520 W/m² | - |
| 1777496555 | 20.56° C | 68% | 1010 hPa | 0 mm | - | 657 W/m² | - |
| 1777496256 | 20.56° C | 69% | 1010.2 hPa | 0 mm | - | 260 W/m² | - |
| 1777495956 | 20.56° C | 70% | 1010.2 hPa | 0 mm | - | 388 W/m² | - |
| 1777495656 | 20.56° C | 69% | 1010.1 hPa | 0 mm | - | 202 W/m² | - |
| 1777495356 | 20.56° C | 68% | 1010.2 hPa | 0 mm | - | 237 W/m² | - |
| 1777495056 | 20.56° C | 69% | 1010.1 hPa | 0 mm | - | 584 W/m² | - |
| 1777494756 | 20.56° C | 70% | 1010.2 hPa | 0 mm | - | 502 W/m² | - |
| 1777494456 | 20.56° C | 70% | 1010.4 hPa | 0 mm | - | 536 W/m² | - |
| 1777494156 | 20° C | 72% | 1010.4 hPa | 0 mm | - | 874 W/m² | - |
| 1777493857 | 20° C | 71% | 1010.4 hPa | 0 mm | - | 674 W/m² | - |
| 1777493553 | 20° C | 72% | 1010.6 hPa | 0 mm | - | 251 W/m² | - |
| 1777493254 | 20° C | 72% | 1010.6 hPa | 0 mm | - | 546 W/m² | - |
| 1777492950 | 20.56° C | 72% | 1010.6 hPa | 0 mm | - | 820 W/m² | - |
| 1777492651 | 20° C | 73% | 1010.5 hPa | 0 mm | - | 926 W/m² | - |
| 1777492348 | 20° C | 73% | 1010.7 hPa | 0 mm | - | 407 W/m² | - |
| 1777492048 | 20° C | 72% | 1010.8 hPa | 0 mm | - | 778 W/m² | - |
| 1777491748 | 19.44° C | 73% | 1010.8 hPa | 0 mm | - | 204 W/m² | - |
| 1777491448 | 19.44° C | 74% | 1010.9 hPa | 0 mm | - | 453 W/m² | - |
| 1777491148 | 19.44° C | 76% | 1010.9 hPa | 0 mm | - | 541 W/m² | - |
* Rain latest hour (hover to see other rain measurements)
** Current wind speed in m/s (hover to see current wind gust speed)